createdAt,value
2017-08-15T00:00:47.897Z,93.7
2017-08-15T00:01:49.433Z,93.6
2017-08-15T00:02:51.014Z,93.3
2017-08-15T00:03:52.558Z,93.3
2017-08-15T00:04:54.077Z,94.3
2017-08-15T00:05:55.723Z,93.9
2017-08-15T00:06:57.370Z,94.1
2017-08-15T00:07:58.898Z,94.8
2017-08-15T00:09:00.462Z,94.1
2017-08-15T00:10:02.097Z,93.9
2017-08-15T00:11:03.668Z,93.8
2017-08-15T00:12:05.223Z,94.1
2017-08-15T00:13:06.806Z,94.0
2017-08-15T00:14:08.386Z,93.8
2017-08-15T00:15:09.968Z,94.0
2017-08-15T00:16:11.585Z,95.3
2017-08-15T00:17:13.160Z,95.0
2017-08-15T00:18:14.743Z,95.0
2017-08-15T00:19:16.387Z,94.4
2017-08-15T00:20:17.951Z,93.3
2017-08-15T00:21:19.555Z,94.6
2017-08-15T00:22:21.197Z,95.0
2017-08-15T00:23:22.789Z,94.6
2017-08-15T00:24:24.390Z,94.0
2017-08-15T00:25:25.952Z,93.7
2017-08-15T00:26:27.506Z,93.4
2017-08-15T00:27:30.115Z,93.3
2017-08-15T00:28:31.717Z,93.4
2017-08-15T00:29:33.347Z,94.1
2017-08-15T00:30:34.912Z,94.3
2017-08-15T00:31:36.496Z,93.5
2017-08-15T00:32:38.067Z,94.3
2017-08-15T00:33:39.677Z,95.7
2017-08-15T00:34:41.218Z,95.4
2017-08-15T00:35:42.766Z,94.9
2017-08-15T00:36:44.333Z,95.2
2017-08-15T00:37:45.941Z,95.6
2017-08-15T00:38:47.477Z,95.0
2017-08-15T00:39:49.123Z,95.4
2017-08-15T00:40:50.716Z,94.6
2017-08-15T00:41:53.265Z,94.4
2017-08-15T00:42:54.827Z,94.5
2017-08-15T00:43:56.426Z,95.0
2017-08-15T00:44:58.042Z,95.4
2017-08-15T00:45:59.682Z,94.9
2017-08-15T00:47:01.305Z,94.8
2017-08-15T00:48:03.038Z,95.3
2017-08-15T00:49:04.839Z,96.1
2017-08-15T00:50:06.567Z,94.9
2017-08-15T00:51:08.265Z,95.2
2017-08-15T00:52:09.950Z,95.3
2017-08-15T00:53:11.583Z,95.2
2017-08-15T00:54:13.264Z,95.4
2017-08-15T00:55:14.841Z,96.4
2017-08-15T00:56:16.511Z,95.5
2017-08-15T00:57:18.156Z,95.5
2017-08-15T00:58:19.821Z,94.9
2017-08-15T00:59:21.419Z,95.4
2017-08-15T01:00:23.021Z,96.1
2017-08-15T01:01:24.603Z,95.2
2017-08-15T01:02:26.252Z,95.2
2017-08-15T01:03:27.782Z,95.1
2017-08-15T01:04:29.365Z,95.5
2017-08-15T01:05:30.949Z,95.4
2017-08-15T01:06:32.587Z,96.7
2017-08-15T01:07:34.299Z,97.0
2017-08-15T01:08:35.915Z,96.2
2017-08-15T01:09:37.464Z,96.4
2017-08-15T01:10:39.096Z,96.7
2017-08-15T01:11:40.644Z,96.0
2017-08-15T01:12:42.262Z,95.8
2017-08-15T01:13:43.857Z,95.3
2017-08-15T01:14:45.465Z,96.7
2017-08-15T01:15:47.052Z,95.7
2017-08-15T01:16:48.634Z,96.6
2017-08-15T01:17:50.259Z,96.5
2017-08-15T01:18:51.876Z,96.5
2017-08-15T01:19:53.490Z,96.9
2017-08-15T01:20:55.131Z,96.9
2017-08-15T01:21:56.693Z,96.9
2017-08-15T01:22:58.324Z,96.6
2017-08-15T01:23:59.980Z,96.2
2017-08-15T01:25:01.524Z,96.2
2017-08-15T01:26:03.143Z,96.3
2017-08-15T01:27:04.736Z,96.1
2017-08-15T01:28:06.372Z,96.2
2017-08-15T01:29:08.008Z,96.6
2017-08-15T01:30:09.646Z,98.1
2017-08-15T01:31:11.212Z,97.7
2017-08-15T01:32:12.875Z,96.6
2017-08-15T01:33:15.531Z,95.4
2017-08-15T01:34:17.170Z,96.1
2017-08-15T01:35:18.701Z,96.2
2017-08-15T01:36:20.335Z,97.1
2017-08-15T01:37:22.949Z,97.0
2017-08-15T01:38:24.639Z,96.4
2017-08-15T01:39:26.302Z,95.6
2017-08-15T01:40:27.839Z,96.3
2017-08-15T01:41:29.515Z,96.2
2017-08-15T01:42:31.221Z,98.3
2017-08-15T01:43:32.881Z,97.9
2017-08-15T01:44:34.605Z,97.5
2017-08-15T01:45:36.314Z,98.4
2017-08-15T01:46:37.944Z,97.4
2017-08-15T01:47:40.573Z,97.3
2017-08-15T01:48:42.268Z,97.2
2017-08-15T01:49:45.913Z,97.5
2017-08-15T01:50:47.561Z,97.7
2017-08-15T01:51:49.149Z,97.8
2017-08-15T01:52:50.702Z,96.8
2017-08-15T01:53:52.681Z,98.2
2017-08-15T01:54:54.243Z,98.1
2017-08-15T01:55:55.870Z,96.4
2017-08-15T01:56:57.388Z,97.9
2017-08-15T01:57:58.941Z,97.7
2017-08-15T01:59:00.498Z,98.9
2017-08-15T02:00:02.051Z,99.1
2017-08-15T02:01:03.618Z,97.9
2017-08-15T02:02:05.151Z,97.2
2017-08-15T02:03:06.757Z,97.3
2017-08-15T02:04:08.293Z,98.1
2017-08-15T02:05:09.848Z,96.7
2017-08-15T02:06:11.337Z,96.5
2017-08-15T02:07:12.898Z,96.2
2017-08-15T02:08:14.538Z,96.8
2017-08-15T02:09:16.243Z,98.4
2017-08-15T02:10:17.812Z,98.5
2017-08-15T02:11:19.455Z,98.4
2017-08-15T02:12:21.135Z,98.3
2017-08-15T02:13:22.714Z,98.0
2017-08-15T02:14:24.301Z,97.0
2017-08-15T02:15:25.953Z,96.7
2017-08-15T02:16:27.505Z,97.8
2017-08-15T02:17:29.076Z,96.8
2017-08-15T02:18:30.652Z,97.9
2017-08-15T02:19:32.274Z,97.0
2017-08-15T02:20:34.942Z,97.2
2017-08-15T02:21:36.511Z,98.0
2017-08-15T02:22:38.192Z,98.8
2017-08-15T02:23:39.772Z,97.6
2017-08-15T02:24:41.467Z,97.3
2017-08-15T02:25:43.104Z,97.0
2017-08-15T02:26:44.823Z,98.1
2017-08-15T02:27:46.414Z,98.4
2017-08-15T02:28:48.031Z,100.0
2017-08-15T02:29:49.642Z,99.4
2017-08-15T02:30:51.349Z,99.4
2017-08-15T02:31:53.017Z,98.9
2017-08-15T02:32:54.694Z,98.1
2017-08-15T02:33:56.288Z,97.7
2017-08-15T02:34:59.949Z,97.5
2017-08-15T02:36:01.539Z,98.1
2017-08-15T02:37:03.236Z,98.7
2017-08-15T02:38:04.947Z,99.7
2017-08-15T02:39:06.633Z,99.2
2017-08-15T02:40:08.289Z,98.4
2017-08-15T02:41:09.959Z,98.7
2017-08-15T02:42:11.645Z,100.0
2017-08-15T02:43:13.243Z,100.0
2017-08-15T02:44:14.943Z,100.0
2017-08-15T02:45:17.611Z,99.5
2017-08-15T02:46:19.220Z,98.2
2017-08-15T02:47:20.978Z,98.4
2017-08-15T02:48:22.563Z,98.6
2017-08-15T02:49:24.170Z,99.2
2017-08-15T02:50:25.814Z,99.8
2017-08-15T02:51:27.462Z,99.5
2017-08-15T02:52:29.208Z,99.2
2017-08-15T02:53:30.815Z,98.8
2017-08-15T02:54:32.518Z,98.7
2017-08-15T02:55:35.167Z,99.2
2017-08-15T02:56:36.816Z,98.9
2017-08-15T02:57:38.504Z,98.9
2017-08-15T02:58:40.165Z,99.0
2017-08-15T02:59:41.777Z,98.2
2017-08-15T03:00:43.426Z,98.7
2017-08-15T03:01:45.090Z,100.0
2017-08-15T03:02:46.731Z,100.0
2017-08-15T03:03:48.778Z,100.0
2017-08-15T03:04:50.434Z,100.0
2017-08-15T03:05:52.122Z,100.0
2017-08-15T03:06:53.791Z,99.2
2017-08-15T03:07:55.436Z,98.7
2017-08-15T03:08:57.108Z,98.5
2017-08-15T03:09:58.680Z,98.6
2017-08-15T03:11:00.323Z,98.3
2017-08-15T03:12:03.991Z,98.9
2017-08-15T03:13:05.751Z,98.4
2017-08-15T03:14:07.461Z,98.2
2017-08-15T03:15:09.142Z,98.2
2017-08-15T03:16:10.812Z,100.0
2017-08-15T03:17:12.505Z,100.0
2017-08-15T03:18:14.171Z,99.5
2017-08-15T03:19:15.861Z,99.2
2017-08-15T03:20:17.487Z,98.9
2017-08-15T03:21:19.077Z,99.1
2017-08-15T03:22:20.613Z,100.0
2017-08-15T03:23:22.160Z,99.5
2017-08-15T03:24:23.743Z,98.8
2017-08-15T03:25:25.331Z,98.2
2017-08-15T03:26:26.889Z,98.8
2017-08-15T03:27:28.389Z,98.7
2017-08-15T03:28:29.971Z,98.9
2017-08-15T03:29:31.549Z,100.0
2017-08-15T03:30:33.111Z,100.0
2017-08-15T03:31:34.723Z,100.0
2017-08-15T03:32:36.354Z,99.9
2017-08-15T03:33:37.950Z,99.9
2017-08-15T03:34:39.617Z,99.4
2017-08-15T03:35:41.271Z,99.3
2017-08-15T03:36:42.897Z,99.3
2017-08-15T03:37:44.464Z,98.5
2017-08-15T03:38:46.020Z,99.4
2017-08-15T03:39:47.636Z,99.9
2017-08-15T03:40:49.257Z,100.0
2017-08-15T03:41:50.877Z,100.0
2017-08-15T03:42:52.605Z,100.0
2017-08-15T03:43:54.233Z,100.0
2017-08-15T03:44:55.838Z,100.0
2017-08-15T03:45:57.385Z,100.0
2017-08-15T03:46:58.962Z,100.0
2017-08-15T03:48:00.579Z,100.0
2017-08-15T03:49:02.101Z,100.0
2017-08-15T03:50:03.862Z,100.0
2017-08-15T03:51:06.484Z,99.9
2017-08-15T03:52:08.070Z,99.7
2017-08-15T03:53:09.636Z,99.2
2017-08-15T03:54:11.259Z,99.9
2017-08-15T03:55:12.851Z,100.0
2017-08-15T03:56:14.367Z,100.0
2017-08-15T03:57:15.913Z,99.5
2017-08-15T03:58:17.472Z,99.7
2017-08-15T03:59:19.084Z,99.9
2017-08-15T04:00:20.724Z,100.0
2017-08-15T04:01:23.438Z,100.0
2017-08-15T04:02:25.082Z,100.0
2017-08-15T04:03:26.730Z,100.0
2017-08-15T04:04:28.373Z,100.0
2017-08-15T04:05:31.046Z,100.0
2017-08-15T04:06:32.707Z,100.0
2017-08-15T04:07:34.368Z,100.0
2017-08-15T04:08:36.127Z,100.0
2017-08-15T04:09:37.841Z,100.0
2017-08-15T04:10:39.413Z,100.0
2017-08-15T04:11:41.020Z,100.0
2017-08-15T04:12:42.662Z,100.0
2017-08-15T04:13:44.303Z,100.0
2017-08-15T04:14:45.908Z,100.0
2017-08-15T04:15:48.456Z,100.0
2017-08-15T04:16:50.017Z,100.0
2017-08-15T04:17:51.671Z,99.3
2017-08-15T04:18:53.274Z,99.2
2017-08-15T04:19:54.908Z,99.2
2017-08-15T04:20:56.534Z,99.4
2017-08-15T04:21:58.221Z,99.3
2017-08-15T04:22:59.929Z,100.0
2017-08-15T04:24:02.604Z,100.0
2017-08-15T04:25:04.215Z,100.0
2017-08-15T04:26:05.934Z,99.9
2017-08-15T04:27:07.541Z,99.2
2017-08-15T04:28:09.223Z,100.0
2017-08-15T04:29:10.847Z,100.0
2017-08-15T04:30:12.537Z,99.9
2017-08-15T04:31:14.297Z,100.0
2017-08-15T04:32:16.004Z,100.0
2017-08-15T04:33:17.637Z,100.0
2017-08-15T04:34:19.251Z,100.0
2017-08-15T04:35:20.958Z,100.0
2017-08-15T04:36:22.523Z,100.0
2017-08-15T04:37:24.231Z,100.0
2017-08-15T04:38:25.895Z,100.0
2017-08-15T04:39:27.502Z,100.0
2017-08-15T04:40:29.128Z,100.0
2017-08-15T04:41:30.764Z,100.0
2017-08-15T04:42:32.356Z,100.0
2017-08-15T04:43:33.964Z,100.0
2017-08-15T04:44:35.735Z,100.0
2017-08-15T04:45:37.401Z,100.0
2017-08-15T04:46:38.964Z,100.0
2017-08-15T04:47:40.816Z,100.0
2017-08-15T04:48:42.488Z,100.0
2017-08-15T04:49:44.214Z,100.0
2017-08-15T04:50:45.857Z,100.0
2017-08-15T04:51:47.536Z,100.0
2017-08-15T04:52:49.253Z,100.0
2017-08-15T04:53:50.937Z,100.0
2017-08-15T04:54:53.726Z,100.0
2017-08-15T04:55:55.380Z,100.0
2017-08-15T04:56:56.994Z,100.0
2017-08-15T04:57:58.512Z,100.0
2017-08-15T04:59:00.149Z,100.0
2017-08-15T05:00:01.750Z,100.0
2017-08-15T05:01:04.487Z,100.0
2017-08-15T05:02:06.025Z,100.0
2017-08-15T05:03:07.591Z,100.0
2017-08-15T05:04:09.181Z,100.0
2017-08-15T05:05:10.740Z,100.0
2017-08-15T05:06:12.309Z,100.0
2017-08-15T05:07:13.864Z,100.0
2017-08-15T05:08:15.432Z,100.0
2017-08-15T05:09:17.062Z,100.0
2017-08-15T05:10:18.781Z,100.0
2017-08-15T05:11:20.413Z,100.0
2017-08-15T05:12:22.098Z,100.0
2017-08-15T05:13:23.733Z,100.0
2017-08-15T05:14:25.451Z,100.0
2017-08-15T05:15:27.021Z,100.0
2017-08-15T05:16:28.564Z,100.0
2017-08-15T05:17:30.194Z,100.0
2017-08-15T05:18:31.999Z,100.0
2017-08-15T05:19:34.617Z,100.0
2017-08-15T05:20:36.172Z,100.0
2017-08-15T05:21:38.881Z,100.0
2017-08-15T05:22:40.429Z,100.0
2017-08-15T05:23:42.049Z,100.0
2017-08-15T05:24:43.706Z,100.0
2017-08-15T05:25:45.352Z,100.0
2017-08-15T05:26:47.037Z,100.0
2017-08-15T05:27:48.709Z,100.0
2017-08-15T05:28:50.327Z,100.0
2017-08-15T05:29:52.009Z,100.0
2017-08-15T05:30:53.695Z,100.0
2017-08-15T05:31:55.511Z,100.0
2017-08-15T05:32:57.119Z,100.0
2017-08-15T05:33:58.824Z,100.0
2017-08-15T05:35:00.552Z,100.0
2017-08-15T05:36:02.206Z,100.0
2017-08-15T05:37:03.786Z,100.0
2017-08-15T05:38:05.549Z,100.0
2017-08-15T05:39:07.157Z,100.0
2017-08-15T05:40:08.767Z,100.0
2017-08-15T05:41:10.456Z,100.0
2017-08-15T05:42:12.262Z,100.0
2017-08-15T05:43:13.950Z,100.0
2017-08-15T05:44:15.596Z,100.0
2017-08-15T05:45:17.227Z,100.0
2017-08-15T05:46:19.042Z,100.0
2017-08-15T05:47:20.832Z,100.0
2017-08-15T05:48:22.709Z,99.4
2017-08-15T05:49:24.337Z,99.4
2017-08-15T05:50:25.987Z,100.0
2017-08-15T05:51:27.640Z,100.0
2017-08-15T05:52:29.345Z,100.0
2017-08-15T05:53:31.009Z,100.0
2017-08-15T05:54:32.617Z,100.0
2017-08-15T05:55:34.235Z,99.8
2017-08-15T05:56:36.008Z,99.5
2017-08-15T05:57:37.656Z,99.5
2017-08-15T05:58:39.168Z,99.2
2017-08-15T05:59:40.788Z,99.5
2017-08-15T06:00:42.500Z,98.8
2017-08-15T06:01:44.064Z,98.9
2017-08-15T06:02:45.731Z,99.0
2017-08-15T06:03:47.325Z,99.2
2017-08-15T06:04:49.900Z,99.3
2017-08-15T06:05:51.496Z,99.7
2017-08-15T06:06:53.020Z,99.2
2017-08-15T06:07:54.559Z,99.4
2017-08-15T06:08:56.125Z,99.0
2017-08-15T06:09:57.685Z,99.1
2017-08-15T06:10:59.254Z,98.3
2017-08-15T06:12:00.833Z,99.1
2017-08-15T06:13:02.442Z,99.0
2017-08-15T06:14:04.034Z,98.7
2017-08-15T06:15:05.603Z,98.6
2017-08-15T06:16:07.173Z,98.7
2017-08-15T06:17:08.826Z,98.8
2017-08-15T06:18:10.490Z,98.3
2017-08-15T06:19:12.089Z,98.5
2017-08-15T06:20:13.709Z,99.0
2017-08-15T06:21:15.433Z,99.0
2017-08-15T06:22:17.054Z,97.3
2017-08-15T06:23:18.618Z,95.8
2017-08-15T06:24:20.286Z,94.9
2017-08-15T06:25:21.945Z,95.0
2017-08-15T06:26:23.558Z,94.3
2017-08-15T06:27:25.130Z,93.2
2017-08-15T06:28:26.681Z,93.8
2017-08-15T06:29:28.344Z,93.7
2017-08-15T06:30:29.943Z,93.5
2017-08-15T06:31:31.525Z,93.6
2017-08-15T06:32:33.089Z,94.0
2017-08-15T06:33:34.728Z,93.6
2017-08-15T06:34:36.417Z,94.0
2017-08-15T06:35:39.003Z,93.5
2017-08-15T06:36:40.611Z,93.6
2017-08-15T06:37:42.188Z,93.8
2017-08-15T06:38:43.780Z,93.5
2017-08-15T06:39:46.362Z,92.9
2017-08-15T06:40:47.910Z,91.9
2017-08-15T06:41:49.521Z,91.5
2017-08-15T06:42:51.198Z,90.2
2017-08-15T06:43:52.887Z,90.0
2017-08-15T06:44:54.492Z,89.6
2017-08-15T06:45:56.197Z,87.7
2017-08-15T06:46:57.851Z,87.6
2017-08-15T06:48:00.424Z,87.2
2017-08-15T06:49:01.998Z,86.4
2017-08-15T06:50:03.548Z,85.9
2017-08-15T06:51:05.106Z,86.3
2017-08-15T06:52:06.650Z,86.1
2017-08-15T06:53:08.169Z,85.1
2017-08-15T06:54:09.764Z,84.6
2017-08-15T06:55:11.316Z,83.6
2017-08-15T06:56:12.860Z,83.8
2017-08-15T06:57:14.472Z,83.2
2017-08-15T06:58:16.985Z,82.5
2017-08-15T06:59:18.518Z,82.0
2017-08-15T07:00:20.118Z,82.4
2017-08-15T07:01:41.761Z,83.2
2017-08-15T07:02:43.213Z,82.0
2017-08-15T07:03:44.615Z,82.6
2017-08-15T07:04:46.057Z,82.6
2017-08-15T07:05:48.469Z,82.5
2017-08-15T07:06:49.865Z,83.3
2017-08-15T07:07:51.327Z,82.1
2017-08-15T07:08:52.714Z,81.7
2017-08-15T07:09:55.230Z,81.3
2017-08-15T07:10:56.670Z,82.1
2017-08-15T07:11:58.099Z,80.6
2017-08-15T07:12:59.511Z,81.0
2017-08-15T07:14:00.952Z,80.3
2017-08-15T07:15:02.370Z,80.4
2017-08-15T07:16:03.799Z,80.5
2017-08-15T07:17:05.204Z,80.6
2017-08-15T07:18:06.644Z,79.7
2017-08-15T07:19:08.061Z,80.0
2017-08-15T07:20:09.478Z,78.4
2017-08-15T07:21:10.920Z,76.3
2017-08-15T07:22:12.420Z,75.6
2017-08-15T07:23:14.025Z,76.1
2017-08-15T07:24:15.670Z,75.6
2017-08-15T07:25:17.280Z,75.1
2017-08-15T07:26:18.924Z,76.2
2017-08-15T07:27:20.567Z,75.7
2017-08-15T07:28:22.199Z,75.1
2017-08-15T07:29:23.741Z,74.7
2017-08-15T07:30:25.760Z,74.7
2017-08-15T07:31:27.366Z,75.0
2017-08-15T07:32:30.342Z,73.3
2017-08-15T07:33:31.998Z,74.2
2017-08-15T07:34:33.634Z,73.1
2017-08-15T07:35:35.272Z,73.1
2017-08-15T07:36:36.966Z,72.3
2017-08-15T07:37:38.673Z,73.2
2017-08-15T07:38:40.238Z,73.1
2017-08-15T07:39:41.912Z,73.2
2017-08-15T07:40:43.969Z,73.3
2017-08-15T07:41:45.605Z,71.8
2017-08-15T07:42:48.206Z,70.3
2017-08-15T07:43:50.098Z,70.6
2017-08-15T07:44:52.681Z,71.4
2017-08-15T07:45:54.295Z,71.6
2017-08-15T07:46:55.923Z,70.0
2017-08-15T07:47:57.600Z,69.2
2017-08-15T07:48:59.253Z,69.1
2017-08-15T07:50:00.957Z,66.3
2017-08-15T07:51:02.615Z,67.8
2017-08-15T07:52:04.355Z,68.3
2017-08-15T07:53:05.966Z,66.6
2017-08-15T07:54:07.648Z,66.8
2017-08-15T07:55:09.376Z,66.9
2017-08-15T07:56:11.046Z,66.1
2017-08-15T07:57:12.815Z,65.0
2017-08-15T07:58:14.530Z,66.1
2017-08-15T07:59:16.128Z,66.7
2017-08-15T08:00:17.719Z,65.6
2017-08-15T08:01:42.529Z,66.1
2017-08-15T08:02:43.943Z,65.5
2017-08-15T08:03:45.433Z,64.9
2017-08-15T08:04:46.843Z,64.9
2017-08-15T08:05:48.259Z,65.5
2017-08-15T08:06:49.676Z,64.7
2017-08-15T08:07:51.116Z,65.3
2017-08-15T08:08:52.549Z,65.5
2017-08-15T08:09:53.982Z,66.3
2017-08-15T08:10:55.433Z,66.7
2017-08-15T08:11:56.939Z,67.5
2017-08-15T08:12:58.354Z,66.6
2017-08-15T08:13:59.824Z,66.7
2017-08-15T08:15:01.252Z,67.5
2017-08-15T08:16:02.739Z,67.6
2017-08-15T08:17:04.169Z,65.7
2017-08-15T08:18:06.722Z,66.7
2017-08-15T08:19:08.459Z,65.6
2017-08-15T08:20:11.123Z,65.0
2017-08-15T08:21:12.669Z,64.1
2017-08-15T08:22:14.327Z,63.4
2017-08-15T08:23:16.089Z,64.5
2017-08-15T08:24:17.814Z,63.1
2017-08-15T08:25:19.436Z,64.0
2017-08-15T08:26:21.157Z,62.1
2017-08-15T08:27:22.701Z,62.5
2017-08-15T08:28:24.618Z,63.0
2017-08-15T08:29:26.220Z,62.3
2017-08-15T08:30:28.036Z,62.2
2017-08-15T08:31:30.106Z,62.1
2017-08-15T08:32:31.720Z,61.9
2017-08-15T08:33:33.323Z,62.7
2017-08-15T08:34:34.954Z,63.0
2017-08-15T08:35:36.615Z,62.1
2017-08-15T08:36:38.272Z,62.3
2017-08-15T08:37:39.924Z,61.3
2017-08-15T08:38:42.233Z,61.3
2017-08-15T08:39:43.910Z,62.1
2017-08-15T08:40:45.596Z,61.5
2017-08-15T08:41:47.337Z,61.2
2017-08-15T08:42:48.950Z,62.2
2017-08-15T08:43:50.616Z,62.3
2017-08-15T08:44:52.312Z,64.9
2017-08-15T08:45:53.951Z,62.4
2017-08-15T08:46:57.647Z,62.8
2017-08-15T08:47:59.343Z,62.0
2017-08-15T08:49:02.065Z,61.5
2017-08-15T08:50:03.815Z,61.2
2017-08-15T08:51:05.625Z,61.2
2017-08-15T08:52:07.381Z,59.9
2017-08-15T08:53:08.922Z,58.5
2017-08-15T08:54:10.508Z,59.7
2017-08-15T08:55:12.172Z,59.7
2017-08-15T08:56:13.688Z,58.1
2017-08-15T08:57:15.230Z,57.9
2017-08-15T08:58:16.843Z,58.5
2017-08-15T08:59:18.406Z,59.2
2017-08-15T09:00:20.066Z,59.2
2017-08-15T09:01:41.776Z,59.5
2017-08-15T09:02:43.177Z,57.7
2017-08-15T09:03:45.615Z,57.8
2017-08-15T09:04:47.021Z,57.6
2017-08-15T09:05:48.465Z,58.1
2017-08-15T09:06:50.085Z,57.6
2017-08-15T09:07:53.552Z,55.8
2017-08-15T09:08:54.993Z,56.9
2017-08-15T09:09:56.811Z,56.4
2017-08-15T09:10:58.320Z,55.9
2017-08-15T09:11:59.876Z,56.6
2017-08-15T09:13:02.040Z,56.7
2017-08-15T09:14:04.757Z,56.2
2017-08-15T09:15:06.524Z,55.2
2017-08-15T09:16:08.183Z,55.6
2017-08-15T09:17:09.765Z,56.6
2017-08-15T09:18:11.361Z,57.0
2017-08-15T09:19:12.973Z,55.6
2017-08-15T09:20:14.566Z,54.8
2017-08-15T09:21:16.142Z,55.4
2017-08-15T09:22:17.763Z,54.5
2017-08-15T09:23:19.523Z,55.3
2017-08-15T09:24:21.139Z,54.7
2017-08-15T09:25:22.772Z,54.6
2017-08-15T09:26:24.449Z,54.4
2017-08-15T09:27:26.059Z,54.4
2017-08-15T09:28:27.726Z,53.7
2017-08-15T09:29:29.411Z,53.8
2017-08-15T09:30:31.255Z,54.9
2017-08-15T09:31:32.852Z,54.0
2017-08-15T09:32:34.500Z,53.6
2017-08-15T09:33:36.353Z,53.0
2017-08-15T09:34:37.991Z,53.7
2017-08-15T09:35:39.858Z,54.1
2017-08-15T09:36:41.558Z,54.1
2017-08-15T09:37:43.254Z,55.1
2017-08-15T09:38:44.979Z,54.6
2017-08-15T09:39:46.561Z,52.1
2017-08-15T09:40:48.281Z,53.8
2017-08-15T09:41:49.788Z,52.9
2017-08-15T09:42:51.368Z,53.2
2017-08-15T09:43:53.029Z,53.5
2017-08-15T09:44:54.632Z,52.6
2017-08-15T09:45:56.711Z,51.2
2017-08-15T09:46:58.347Z,52.1
2017-08-15T09:47:59.922Z,50.9
2017-08-15T09:49:01.564Z,53.6
2017-08-15T09:50:03.256Z,54.2
2017-08-15T09:51:04.933Z,52.2
2017-08-15T09:52:06.702Z,53.5
2017-08-15T09:53:08.416Z,54.4
2017-08-15T09:54:10.015Z,54.0
2017-08-15T09:55:11.670Z,54.1
2017-08-15T09:56:13.194Z,51.0
2017-08-15T09:57:14.808Z,51.3
2017-08-15T09:58:16.435Z,51.9
2017-08-15T09:59:18.060Z,51.7
2017-08-15T10:00:19.620Z,50.6
2017-08-15T10:01:41.824Z,50.9
2017-08-15T10:02:43.268Z,50.9
2017-08-15T10:03:44.729Z,50.3
2017-08-15T10:04:46.213Z,49.7
2017-08-15T10:05:47.652Z,50.0
2017-08-15T10:06:49.102Z,50.8
2017-08-15T10:07:50.519Z,51.7
2017-08-15T10:08:51.983Z,51.5
2017-08-15T10:09:53.404Z,50.8
2017-08-15T10:10:54.872Z,51.1
2017-08-15T10:11:56.302Z,50.8
2017-08-15T10:12:57.813Z,51.5
2017-08-15T10:13:59.507Z,50.8
2017-08-15T10:15:01.156Z,50.9
2017-08-15T10:16:02.957Z,50.8
2017-08-15T10:17:04.594Z,50.8
2017-08-15T10:18:06.421Z,50.6
2017-08-15T10:19:08.005Z,49.6
2017-08-15T10:20:09.745Z,50.7
2017-08-15T10:21:11.437Z,51.3
2017-08-15T10:22:13.039Z,52.2
2017-08-15T10:23:14.636Z,52.0
2017-08-15T10:24:16.298Z,51.7
2017-08-15T10:25:18.142Z,51.2
2017-08-15T10:26:19.904Z,50.6
2017-08-15T10:27:21.547Z,50.8
2017-08-15T10:28:23.159Z,50.0
2017-08-15T10:29:24.770Z,50.8
2017-08-15T10:30:26.571Z,49.9
2017-08-15T10:31:28.194Z,50.6
2017-08-15T10:32:29.832Z,50.0
2017-08-15T10:33:31.412Z,50.5
2017-08-15T10:34:33.010Z,50.9
2017-08-15T10:35:34.601Z,50.5
2017-08-15T10:36:36.254Z,50.4
2017-08-15T10:37:37.846Z,50.9
2017-08-15T10:38:39.470Z,49.8
2017-08-15T10:39:41.108Z,49.2
2017-08-15T10:40:42.744Z,50.2
2017-08-15T10:41:44.348Z,50.3
2017-08-15T10:42:47.003Z,50.4
2017-08-15T10:43:48.600Z,47.2
2017-08-15T10:44:50.157Z,48.2
2017-08-15T10:45:51.796Z,48.3
2017-08-15T10:46:53.450Z,49.6
2017-08-15T10:47:55.102Z,50.0
2017-08-15T10:48:56.761Z,48.9
2017-08-15T10:49:58.404Z,48.3
2017-08-15T10:50:59.946Z,48.2
2017-08-15T10:52:01.493Z,48.0
2017-08-15T10:53:03.143Z,47.5
2017-08-15T10:54:04.780Z,48.1
2017-08-15T10:55:06.373Z,48.2
2017-08-15T10:56:08.213Z,48.1
2017-08-15T10:57:09.820Z,46.6
2017-08-15T10:58:11.447Z,46.8
2017-08-15T10:59:13.045Z,47.1
2017-08-15T11:00:14.699Z,46.8
2017-08-15T11:01:16.400Z,46.4
2017-08-15T11:02:18.202Z,45.9
2017-08-15T11:03:19.795Z,46.1
2017-08-15T11:04:21.441Z,45.3
2017-08-15T11:05:23.053Z,46.2
2017-08-15T11:06:24.608Z,46.4
2017-08-15T11:07:26.257Z,45.1
2017-08-15T11:08:27.875Z,46.5
2017-08-15T11:09:29.596Z,46.2
2017-08-15T11:10:31.276Z,46.7
2017-08-15T11:11:32.925Z,46.5
2017-08-15T11:12:34.489Z,46.9
2017-08-15T11:13:36.051Z,45.6
2017-08-15T11:14:37.668Z,43.9
2017-08-15T11:15:39.229Z,44.4
2017-08-15T11:16:40.809Z,44.1
2017-08-15T11:17:42.388Z,44.5
2017-08-15T11:18:44.011Z,45.8
2017-08-15T11:19:45.600Z,45.0
2017-08-15T11:20:47.173Z,46.8
2017-08-15T11:21:48.804Z,44.4
2017-08-15T11:22:50.438Z,44.9
2017-08-15T11:23:52.011Z,45.6
2017-08-15T11:24:53.714Z,45.1
2017-08-15T11:25:55.371Z,44.7
2017-08-15T11:26:56.944Z,45.1
2017-08-15T11:27:58.604Z,44.5
2017-08-15T11:29:00.258Z,43.5
2017-08-15T11:30:01.937Z,44.3
2017-08-15T11:31:03.567Z,43.2
2017-08-15T11:32:05.205Z,43.3
2017-08-15T11:33:07.014Z,44.0
2017-08-15T11:34:08.762Z,44.6
2017-08-15T11:35:10.419Z,43.1
2017-08-15T11:36:13.057Z,43.4
2017-08-15T11:37:14.684Z,42.6
2017-08-15T11:38:16.377Z,42.4
2017-08-15T11:39:18.050Z,42.0
2017-08-15T11:40:19.637Z,43.4
2017-08-15T11:41:21.313Z,43.4
2017-08-15T11:42:22.919Z,42.3
2017-08-15T11:43:24.554Z,41.3
2017-08-15T11:44:26.282Z,42.3
2017-08-15T11:45:27.992Z,41.3
2017-08-15T11:46:29.646Z,41.6
2017-08-15T11:47:31.242Z,41.0
2017-08-15T11:48:32.971Z,41.7
2017-08-15T11:49:34.621Z,41.1
2017-08-15T11:50:36.283Z,39.8
2017-08-15T11:51:37.909Z,40.9
2017-08-15T11:52:39.568Z,39.6
2017-08-15T11:53:41.263Z,39.8
2017-08-15T11:54:42.946Z,41.3
2017-08-15T11:55:44.541Z,41.3
2017-08-15T11:56:46.125Z,41.1
2017-08-15T11:57:47.769Z,41.9
2017-08-15T11:58:49.320Z,43.2
2017-08-15T11:59:50.989Z,43.0
2017-08-15T12:00:52.715Z,43.7
2017-08-15T12:01:54.394Z,44.0
2017-08-15T12:02:56.121Z,45.4
2017-08-15T12:03:57.766Z,45.4
2017-08-15T12:04:59.490Z,45.7
2017-08-15T12:06:01.110Z,46.8
2017-08-15T12:07:02.791Z,47.7
2017-08-15T12:08:04.436Z,48.2
2017-08-15T12:09:06.117Z,48.0
2017-08-15T12:10:07.801Z,48.7
2017-08-15T12:11:09.552Z,49.4
2017-08-15T12:12:11.191Z,49.8
2017-08-15T12:13:12.881Z,50.3
2017-08-15T12:14:14.460Z,51.3
2017-08-15T12:15:16.056Z,51.4
2017-08-15T12:16:17.721Z,51.6
2017-08-15T12:17:19.369Z,51.8
2017-08-15T12:18:21.037Z,51.8
2017-08-15T12:19:22.674Z,52.7
2017-08-15T12:20:24.305Z,52.8
2017-08-15T12:21:25.988Z,52.8
2017-08-15T12:22:27.715Z,53.5
2017-08-15T12:23:29.324Z,53.9
2017-08-15T12:24:30.947Z,54.1
2017-08-15T12:25:32.501Z,53.6
2017-08-15T12:26:34.052Z,55.1
2017-08-15T12:27:35.890Z,55.8
2017-08-15T12:28:37.432Z,56.2
2017-08-15T12:29:39.018Z,57.1
2017-08-15T12:30:40.606Z,58.0
2017-08-15T12:31:42.317Z,57.9
2017-08-15T12:32:43.862Z,60.1
2017-08-15T12:33:46.708Z,59.1
2017-08-15T12:34:48.251Z,60.0
2017-08-15T12:35:49.791Z,59.5
2017-08-15T12:36:51.391Z,61.2
2017-08-15T12:37:52.993Z,59.8
2017-08-15T12:38:54.629Z,60.7
2017-08-15T12:39:56.296Z,59.7
2017-08-15T12:40:57.842Z,61.0
2017-08-15T12:41:59.487Z,61.1
2017-08-15T12:43:01.131Z,60.4
2017-08-15T12:44:03.722Z,59.2
2017-08-15T12:45:05.293Z,58.3
2017-08-15T12:46:06.892Z,58.1
2017-08-15T12:47:08.461Z,58.6
2017-08-15T12:48:10.111Z,58.4
2017-08-15T12:49:11.746Z,57.7
2017-08-15T12:50:13.371Z,58.6
2017-08-15T12:51:15.097Z,58.6
2017-08-15T12:52:16.676Z,59.4
2017-08-15T12:53:18.514Z,58.7
2017-08-15T12:54:20.475Z,60.0
2017-08-15T12:55:22.265Z,59.0
2017-08-15T12:56:23.994Z,58.2
2017-08-15T12:57:25.617Z,58.1
2017-08-15T12:58:28.380Z,58.4
2017-08-15T12:59:29.989Z,59.6
2017-08-15T13:00:31.798Z,58.2
2017-08-15T13:01:33.527Z,58.4
2017-08-15T13:02:35.171Z,57.3
2017-08-15T13:03:36.740Z,57.1
2017-08-15T13:04:38.533Z,57.6
2017-08-15T13:05:40.291Z,57.8
2017-08-15T13:06:42.218Z,58.2
2017-08-15T13:07:43.960Z,58.3
2017-08-15T13:08:45.712Z,57.7
2017-08-15T13:09:47.619Z,58.4
2017-08-15T13:10:49.234Z,58.1
2017-08-15T13:11:50.807Z,59.6
2017-08-15T13:12:52.413Z,58.9
2017-08-15T13:13:54.146Z,59.7
2017-08-15T13:14:55.942Z,60.1
2017-08-15T13:15:57.566Z,59.3
2017-08-15T13:16:59.262Z,59.8
2017-08-15T13:18:00.925Z,59.3
2017-08-15T13:19:02.600Z,59.3
2017-08-15T13:20:04.213Z,59.3
2017-08-15T13:21:06.921Z,59.8
2017-08-15T13:22:08.629Z,60.5
2017-08-15T13:23:11.444Z,60.0
2017-08-15T13:24:13.101Z,61.2
2017-08-15T13:25:14.725Z,61.2
2017-08-15T13:26:16.498Z,61.4
2017-08-15T13:27:19.205Z,60.8
2017-08-15T13:28:20.909Z,61.0
2017-08-15T13:29:22.575Z,60.6
2017-08-15T13:30:24.379Z,60.7
2017-08-15T13:31:26.056Z,61.4
2017-08-15T13:32:27.864Z,61.4
2017-08-15T13:33:29.554Z,61.0
2017-08-15T13:34:31.164Z,59.7
2017-08-15T13:35:32.931Z,59.3
2017-08-15T13:36:34.630Z,59.8
2017-08-15T13:37:37.387Z,60.0
2017-08-15T13:38:38.992Z,59.3